createdAt,value
2023-02-13T00:01:26.904Z,21.75
2023-02-13T00:03:55.285Z,21.25
2023-02-13T00:06:24.021Z,21.00
2023-02-13T00:08:52.313Z,21.00
2023-02-13T00:11:21.575Z,22.00
2023-02-13T00:13:49.880Z,22.50
2023-02-13T00:16:18.605Z,19.00
2023-02-13T00:18:46.988Z,21.00
2023-02-13T00:21:16.283Z,21.25
2023-02-13T00:23:44.702Z,21.50
2023-02-13T00:26:16.129Z,22.00
2023-02-13T00:28:45.391Z,21.00
2023-02-13T00:31:19.008Z,20.75
2023-02-13T00:33:47.764Z,21.50
2023-02-13T00:36:21.918Z,21.75
2023-02-13T00:38:51.096Z,24.00
2023-02-13T00:41:19.612Z,23.75
2023-02-13T00:43:49.178Z,24.50
2023-02-13T00:46:18.507Z,23.00
2023-02-13T00:48:47.480Z,23.50
2023-02-13T00:51:16.006Z,25.00
2023-02-13T00:53:44.453Z,25.00
2023-02-13T00:56:12.808Z,27.50
2023-02-13T00:58:41.143Z,25.50
2023-02-13T01:01:09.442Z,26.75
2023-02-13T01:03:37.883Z,25.75
2023-02-13T01:06:06.761Z,23.75
2023-02-13T01:08:35.091Z,22.50
2023-02-13T01:11:03.442Z,22.00
2023-02-13T01:13:31.787Z,24.00
2023-02-13T01:16:00.472Z,24.00
2023-02-13T01:18:29.097Z,23.25
2023-02-13T01:21:03.441Z,25.75
2023-02-13T01:23:37.188Z,26.25
2023-02-13T01:26:07.797Z,26.25
2023-02-13T01:28:36.766Z,26.00
2023-02-13T01:31:05.294Z,27.00
2023-02-13T01:33:33.681Z,22.50
2023-02-13T01:36:07.721Z,22.75
2023-02-13T01:38:36.205Z,23.00
2023-02-13T01:41:04.747Z,22.25
2023-02-13T01:44:05.625Z,23.25
2023-02-13T01:46:41.772Z,22.00
2023-02-13T01:49:12.847Z,21.75
2023-02-13T01:51:42.689Z,22.25
2023-02-13T01:54:18.789Z,21.75
2023-02-13T01:56:52.794Z,22.00
2023-02-13T01:59:26.680Z,22.00
2023-02-13T02:01:57.255Z,22.00
2023-02-13T02:04:32.261Z,22.50
2023-02-13T02:07:09.753Z,20.00
2023-02-13T02:09:41.626Z,21.75
2023-02-13T02:12:31.680Z,21.75
2023-02-13T02:15:03.131Z,22.00
2023-02-13T02:17:31.669Z,20.00
2023-02-13T02:20:12.054Z,23.50
2023-02-13T02:22:43.321Z,21.00
2023-02-13T02:25:20.380Z,21.75
2023-02-13T02:28:15.904Z,21.75
2023-02-13T02:31:22.108Z,24.25
2023-02-13T02:34:11.589Z,22.50
2023-02-13T02:37:08.444Z,21.75
2023-02-13T02:40:07.368Z,23.25
2023-02-13T02:42:38.334Z,20.50
2023-02-13T02:45:24.955Z,22.50
2023-02-13T02:48:46.170Z,21.75
2023-02-13T02:51:48.407Z,24.00
2023-02-13T02:54:38.109Z,23.00
2023-02-13T02:57:16.016Z,22.25
2023-02-13T03:00:03.670Z,22.25
2023-02-13T03:02:52.653Z,24.00
2023-02-13T03:05:46.105Z,25.50
2023-02-13T03:08:15.488Z,21.25
2023-02-13T03:11:04.321Z,23.50
2023-02-13T03:13:50.421Z,21.75
2023-02-13T03:16:41.036Z,22.75
2023-02-13T03:19:41.808Z,22.50
2023-02-13T03:22:31.508Z,20.50
2023-02-13T03:25:14.548Z,21.75
2023-02-13T03:28:03.864Z,22.50
2023-02-13T03:30:58.001Z,21.25
2023-02-13T03:33:57.797Z,20.50
2023-02-13T03:37:05.117Z,20.00
2023-02-13T03:40:00.652Z,21.00
2023-02-13T03:42:37.454Z,21.50
2023-02-13T03:45:48.241Z,21.50
2023-02-13T03:48:49.497Z,22.00
2023-02-13T03:51:30.169Z,20.50
2023-02-13T03:54:03.577Z,21.00
2023-02-13T03:56:53.835Z,20.50
2023-02-13T03:59:28.656Z,20.00
2023-02-13T04:02:14.877Z,21.00
2023-02-13T04:05:17.378Z,20.50
2023-02-13T04:07:45.739Z,21.75
2023-02-13T04:10:17.557Z,20.50
2023-02-13T04:13:22.961Z,20.00
2023-02-13T04:16:12.479Z,21.75
2023-02-13T04:18:41.982Z,21.75
2023-02-13T04:21:10.497Z,21.00
2023-02-13T04:23:38.853Z,21.00
2023-02-13T04:26:14.431Z,20.50
2023-02-13T04:28:42.817Z,19.50
2023-02-13T04:31:11.376Z,20.00
2023-02-13T04:33:39.730Z,21.75
2023-02-13T04:36:08.389Z,19.75
2023-02-13T04:38:36.678Z,20.25
2023-02-13T04:41:05.005Z,19.50
2023-02-13T04:43:33.292Z,21.25
2023-02-13T04:46:01.616Z,19.75
2023-02-13T04:48:29.932Z,19.25
2023-02-13T04:50:58.396Z,18.75
2023-02-13T04:53:27.043Z,19.25
2023-02-13T04:55:55.348Z,19.25
2023-02-13T04:58:23.652Z,17.25
2023-02-13T05:00:51.932Z,17.25
2023-02-13T05:03:20.267Z,16.75
2023-02-13T05:05:50.605Z,16.25
2023-02-13T05:08:19.227Z,18.25
2023-02-13T05:10:47.542Z,19.00
2023-02-13T05:13:17.590Z,17.00
2023-02-13T05:15:45.944Z,19.75
2023-02-13T05:18:14.268Z,18.75
2023-02-13T05:20:42.986Z,19.50
2023-02-13T05:23:25.421Z,19.00
2023-02-13T05:25:53.835Z,19.50
2023-02-13T05:28:40.516Z,18.75
2023-02-13T05:31:09.062Z,17.75
2023-02-13T05:33:37.439Z,19.25
2023-02-13T05:36:06.093Z,19.00
2023-02-13T05:38:34.425Z,20.25
2023-02-13T05:41:03.301Z,18.25
2023-02-13T05:43:31.914Z,16.25
2023-02-13T05:46:11.455Z,17.25
2023-02-13T05:48:39.810Z,15.25
2023-02-13T05:51:08.602Z,18.00
2023-02-13T05:53:37.206Z,15.75
2023-02-13T05:56:07.202Z,17.00
2023-02-13T05:58:36.122Z,17.75
2023-02-13T06:01:04.722Z,16.50
2023-02-13T06:03:34.167Z,16.25
2023-02-13T06:06:02.608Z,16.50
2023-02-13T06:08:31.028Z,18.50
2023-02-13T06:10:59.716Z,16.75
2023-02-13T06:13:28.263Z,17.25
2023-02-13T06:15:56.852Z,18.25
2023-02-13T06:18:25.298Z,14.50
2023-02-13T06:20:53.681Z,15.00
2023-02-13T06:23:21.970Z,17.25
2023-02-13T06:25:50.274Z,15.75
2023-02-13T06:28:18.733Z,14.25
2023-02-13T06:30:47.431Z,14.75
2023-02-13T06:33:16.182Z,16.75
2023-02-13T06:35:44.489Z,16.50
2023-02-13T06:38:13.211Z,14.50
2023-02-13T06:40:42.085Z,14.50
2023-02-13T06:43:10.554Z,16.25
2023-02-13T06:45:39.206Z,14.25
2023-02-13T06:48:07.759Z,18.00
2023-02-13T06:50:36.185Z,17.75
2023-02-13T06:53:04.701Z,15.25
2023-02-13T06:55:32.999Z,18.00
2023-02-13T06:58:01.316Z,17.25
2023-02-13T07:00:29.735Z,16.25
2023-02-13T07:03:03.892Z,16.75
2023-02-13T07:05:32.975Z,15.75
2023-02-13T07:08:01.286Z,14.25
2023-02-13T07:10:29.723Z,16.50
2023-02-13T07:13:05.647Z,17.50
2023-02-13T07:15:35.913Z,17.50
2023-02-13T07:18:04.507Z,17.50
2023-02-13T07:20:33.148Z,17.00
2023-02-13T07:23:07.608Z,17.00
2023-02-13T07:25:36.359Z,17.00
2023-02-13T07:28:07.004Z,16.75
2023-02-13T07:30:36.459Z,14.75
2023-02-13T07:33:06.712Z,16.75
2023-02-13T07:35:36.852Z,17.00
2023-02-13T07:38:06.051Z,16.25
2023-02-13T07:40:34.784Z,15.00
2023-02-13T07:43:03.161Z,16.25
2023-02-13T07:45:32.258Z,17.50
2023-02-13T07:48:03.403Z,15.50
2023-02-13T07:50:32.005Z,17.50
2023-02-13T07:53:04.187Z,14.50
2023-02-13T07:55:33.611Z,14.50
2023-02-13T07:58:02.773Z,16.25
2023-02-13T08:00:31.169Z,15.25
2023-02-13T08:03:03.977Z,16.25
2023-02-13T08:05:34.840Z,17.00
2023-02-13T08:08:03.129Z,15.25
2023-02-13T08:10:49.628Z,16.25
2023-02-13T08:13:18.751Z,15.25
2023-02-13T08:15:48.203Z,15.25
2023-02-13T08:18:18.840Z,16.50
2023-02-13T08:20:48.005Z,17.00
2023-02-13T08:23:16.388Z,17.50
2023-02-13T08:25:44.904Z,17.75
2023-02-13T08:28:13.461Z,15.25
2023-02-13T08:30:41.811Z,15.50
2023-02-13T08:33:10.133Z,16.50
2023-02-13T08:35:38.431Z,16.50
2023-02-13T08:40:53.324Z,16.75
2023-02-13T08:43:21.620Z,16.25
2023-02-13T08:45:49.945Z,15.75
2023-02-13T08:48:18.260Z,15.75
2023-02-13T08:50:46.541Z,15.75
2023-02-13T08:53:14.873Z,16.00
2023-02-13T08:55:43.149Z,13.00
2023-02-13T08:58:11.684Z,13.50
2023-02-13T09:00:39.969Z,14.25
2023-02-13T09:03:10.089Z,12.75
2023-02-13T09:05:38.745Z,15.50
2023-02-13T09:08:07.890Z,15.00
2023-02-13T09:10:36.354Z,13.50
2023-02-13T09:13:04.750Z,13.50
2023-02-13T09:15:33.922Z,11.25
2023-02-13T09:18:02.501Z,12.00
2023-02-13T09:20:30.813Z,14.50
2023-02-13T09:22:59.275Z,12.50
2023-02-13T09:25:28.041Z,13.75
2023-02-13T09:27:56.399Z,13.75
2023-02-13T09:30:24.888Z,13.50
2023-02-13T09:32:54.766Z,11.50
2023-02-13T09:35:24.570Z,12.00
2023-02-13T09:37:52.977Z,13.75
2023-02-13T09:40:41.937Z,11.25
2023-02-13T09:43:33.439Z,11.75
2023-02-13T09:46:09.548Z,10.50
2023-02-13T09:48:40.550Z,10.00
2023-02-13T09:51:08.886Z,10.00
2023-02-13T09:53:39.276Z,10.50
2023-02-13T09:56:15.662Z,11.25
2023-02-13T09:58:52.926Z,10.50
2023-02-13T10:01:38.977Z,9.50
2023-02-13T10:04:26.266Z,11.50
2023-02-13T10:07:17.896Z,9.50
2023-02-13T10:10:03.174Z,12.75
2023-02-13T10:12:46.549Z,9.75
2023-02-13T10:15:33.254Z,9.00
2023-02-13T10:18:07.054Z,9.75
2023-02-13T10:20:55.188Z,11.25
2023-02-13T10:23:36.566Z,11.00
2023-02-13T10:26:19.325Z,10.25
2023-02-13T10:29:24.472Z,12.50
2023-02-13T10:31:56.819Z,14.50
2023-02-13T10:34:32.874Z,12.50
2023-02-13T10:37:02.316Z,12.50
2023-02-13T10:39:32.269Z,16.25
2023-02-13T10:42:07.500Z,14.25
2023-02-13T10:45:08.640Z,14.50
2023-02-13T10:48:05.841Z,17.50
2023-02-13T10:50:46.242Z,16.25
2023-02-13T10:53:34.209Z,17.00
2023-02-13T10:56:33.365Z,14.00
2023-02-13T10:59:27.130Z,14.00
2023-02-13T11:02:01.063Z,15.50
2023-02-13T11:04:30.906Z,15.00
2023-02-13T11:07:12.786Z,15.25
2023-02-13T11:09:45.020Z,17.25
2023-02-13T11:12:31.919Z,19.00
2023-02-13T11:15:03.217Z,17.50
2023-02-13T11:17:38.492Z,17.50
2023-02-13T11:20:30.344Z,16.50
2023-02-13T11:23:36.249Z,17.00
2023-02-13T11:26:25.534Z,18.50
2023-02-13T11:29:01.989Z,20.00
2023-02-13T11:31:38.789Z,18.25
2023-02-13T11:34:39.909Z,18.25
2023-02-13T11:37:14.218Z,18.00
2023-02-13T11:39:43.540Z,20.00
2023-02-13T11:42:15.736Z,17.25
2023-02-13T11:44:50.033Z,19.75
2023-02-13T11:47:31.035Z,18.00
2023-02-13T11:49:59.436Z,18.00
2023-02-13T11:52:34.042Z,19.00
2023-02-13T11:55:26.053Z,17.50
2023-02-13T11:58:01.025Z,18.00
2023-02-13T12:00:49.779Z,20.00
2023-02-13T12:03:29.008Z,18.25
2023-02-13T12:06:15.922Z,18.75
2023-02-13T12:08:48.422Z,17.50
2023-02-13T12:11:36.001Z,17.25
2023-02-13T12:14:04.515Z,18.00
2023-02-13T12:16:43.585Z,19.00
2023-02-13T12:19:21.498Z,19.75
2023-02-13T12:22:16.034Z,20.50
2023-02-13T12:25:05.810Z,18.50
2023-02-13T12:27:43.986Z,19.00
2023-02-13T12:30:39.794Z,19.00
2023-02-13T12:33:39.712Z,21.25
2023-02-13T12:36:23.663Z,20.25
2023-02-13T12:39:03.708Z,21.75
2023-02-13T12:42:10.597Z,21.50
2023-02-13T12:45:00.146Z,22.75
2023-02-13T12:47:28.429Z,21.25
2023-02-13T12:50:08.566Z,22.25
2023-02-13T12:52:51.465Z,22.00
2023-02-13T12:55:31.686Z,23.50
2023-02-13T12:58:17.957Z,22.25
2023-02-13T13:01:03.330Z,22.75
2023-02-13T13:03:55.972Z,22.25
2023-02-13T13:06:30.232Z,22.50
2023-02-13T13:09:07.335Z,23.00
2023-02-13T13:12:08.732Z,22.50
2023-02-13T13:14:57.246Z,22.50
2023-02-13T13:17:33.967Z,21.00
2023-02-13T13:20:11.256Z,21.25
2023-02-13T13:22:47.150Z,22.50
2023-02-13T13:25:40.268Z,23.00
2023-02-13T13:28:34.428Z,23.75
2023-02-13T13:31:05.184Z,23.25
2023-02-13T13:33:37.005Z,22.25
2023-02-13T13:36:10.296Z,22.50
2023-02-13T13:38:41.621Z,22.00
2023-02-13T13:41:16.098Z,22.25
2023-02-13T13:43:53.559Z,21.00
2023-02-13T13:47:08.079Z,22.25
2023-02-13T13:49:57.661Z,22.00
2023-02-13T13:52:40.201Z,22.50
2023-02-13T13:55:46.451Z,22.00
2023-02-13T13:58:33.967Z,22.00
2023-02-13T14:01:30.160Z,24.00
2023-02-13T14:04:04.608Z,22.50
2023-02-13T14:06:47.755Z,21.75
2023-02-13T14:09:40.215Z,21.25
2023-02-13T14:12:27.170Z,22.75
2023-02-13T14:14:56.577Z,21.00
2023-02-13T14:17:46.664Z,21.75
2023-02-13T14:20:24.523Z,23.00
2023-02-13T14:22:52.956Z,23.50
2023-02-13T14:25:29.446Z,24.00
2023-02-13T14:28:00.812Z,22.25
2023-02-13T14:30:35.205Z,21.50
2023-02-13T14:33:08.493Z,21.75
2023-02-13T14:35:39.229Z,22.50
2023-02-13T14:38:22.858Z,22.25
2023-02-13T14:40:53.487Z,21.75
2023-02-13T14:43:34.037Z,22.75
2023-02-13T14:46:29.439Z,22.75
2023-02-13T14:49:23.045Z,22.50
2023-02-13T14:52:04.870Z,22.25
2023-02-13T14:54:52.057Z,21.50
2023-02-13T14:57:29.852Z,22.75
2023-02-13T15:00:02.434Z,23.00
2023-02-13T15:02:36.837Z,25.50
2023-02-13T15:05:09.453Z,23.50
2023-02-13T15:07:46.616Z,23.75
2023-02-13T15:10:31.190Z,24.00
2023-02-13T15:13:02.007Z,23.25
2023-02-13T15:15:35.343Z,22.00
2023-02-13T15:18:23.099Z,22.00
2023-02-13T15:20:51.541Z,21.75
2023-02-13T15:23:27.615Z,22.00
2023-02-13T15:26:05.729Z,21.75
2023-02-13T15:28:35.847Z,22.50
2023-02-13T15:31:22.203Z,24.50
2023-02-13T15:33:52.367Z,22.50
2023-02-13T15:36:23.785Z,22.00
2023-02-13T15:39:00.998Z,22.25
2023-02-13T15:41:42.075Z,24.75
2023-02-13T15:44:23.666Z,23.75
2023-02-13T15:46:54.006Z,25.00
2023-02-13T15:49:25.968Z,22.75
2023-02-13T15:52:08.156Z,22.75
2023-02-13T15:54:37.016Z,23.00
2023-02-13T15:57:08.316Z,23.00
2023-02-13T15:59:39.568Z,22.50
2023-02-13T16:02:16.573Z,21.50
2023-02-13T16:04:45.919Z,22.75
2023-02-13T16:07:15.515Z,24.25
2023-02-13T16:09:43.950Z,22.50
2023-02-13T16:12:20.962Z,23.00
2023-02-13T16:14:56.137Z,22.25
2023-02-13T16:17:29.848Z,23.25
2023-02-13T16:20:06.373Z,24.00
2023-02-13T16:22:40.531Z,23.25
2023-02-13T16:25:17.851Z,22.25
2023-02-13T16:27:49.462Z,22.50
2023-02-13T16:30:41.482Z,22.50
2023-02-13T16:33:22.307Z,24.25
2023-02-13T16:36:02.232Z,22.75
2023-02-13T16:38:43.498Z,24.00
2023-02-13T16:41:20.928Z,24.75
2023-02-13T16:44:02.712Z,22.25
2023-02-13T16:46:39.265Z,23.25
2023-02-13T16:49:18.263Z,22.50
2023-02-13T16:51:49.440Z,23.75
2023-02-13T16:54:23.809Z,24.00
2023-02-13T16:56:57.272Z,23.25
2023-02-13T16:59:49.377Z,23.50
2023-02-13T17:02:23.774Z,23.50
2023-02-13T17:05:10.291Z,24.00
2023-02-13T17:07:42.950Z,25.25
2023-02-13T17:10:34.668Z,24.75
2023-02-13T17:13:18.533Z,24.75
2023-02-13T17:15:49.353Z,23.50
2023-02-13T17:18:17.626Z,23.25
2023-02-13T17:20:46.949Z,25.00
2023-02-13T17:23:23.348Z,25.25
2023-02-13T17:25:53.507Z,25.00
2023-02-13T17:28:25.163Z,26.00
2023-02-13T17:30:57.493Z,25.25
2023-02-13T17:33:29.740Z,25.00
2023-02-13T17:35:58.383Z,24.25
2023-02-13T17:38:26.882Z,23.50
2023-02-13T17:40:55.789Z,25.00
2023-02-13T17:43:24.200Z,25.25
2023-02-13T17:45:52.757Z,26.25
2023-02-13T17:48:21.334Z,26.75
2023-02-13T17:50:51.801Z,25.25
2023-02-13T17:53:30.853Z,25.00
2023-02-13T17:56:00.084Z,25.00
2023-02-13T17:58:28.472Z,25.50
2023-02-13T18:00:57.057Z,25.00
2023-02-13T18:03:25.776Z,26.00
2023-02-13T18:05:54.072Z,25.00
2023-02-13T18:08:22.355Z,25.50
2023-02-13T18:10:50.804Z,25.25
2023-02-13T18:13:19.156Z,25.25
2023-02-13T18:15:47.590Z,25.25
2023-02-13T18:18:16.949Z,25.00
2023-02-13T18:20:45.758Z,25.00
2023-02-13T18:23:14.997Z,25.00
2023-02-13T18:25:43.381Z,25.50
2023-02-13T18:28:11.884Z,25.75
2023-02-13T18:30:43.956Z,25.25
2023-02-13T18:33:12.915Z,25.50
2023-02-13T18:35:41.266Z,25.00
2023-02-13T18:38:09.552Z,24.50
2023-02-13T18:40:38.125Z,25.75
2023-02-13T18:43:08.516Z,24.75
2023-02-13T18:45:37.860Z,24.50
2023-02-13T18:48:08.903Z,24.75
2023-02-13T18:50:41.635Z,25.00
2023-02-13T18:53:10.498Z,23.75
2023-02-13T18:55:39.034Z,22.75
2023-02-13T18:58:07.554Z,24.75
2023-02-13T19:00:35.909Z,22.25
2023-02-13T19:03:04.232Z,23.50
2023-02-13T19:05:32.529Z,23.00
2023-02-13T19:08:01.027Z,23.25
2023-02-13T19:10:29.377Z,23.00
2023-02-13T19:12:57.693Z,24.50
2023-02-13T19:15:26.214Z,23.75
2023-02-13T19:17:58.041Z,23.00
2023-02-13T19:20:26.380Z,22.00
2023-02-13T19:22:56.004Z,24.25
2023-02-13T19:25:24.360Z,22.75
2023-02-13T19:27:52.697Z,22.75
2023-02-13T19:30:21.200Z,23.00
2023-02-13T19:32:49.543Z,22.50
2023-02-13T19:35:17.900Z,22.75
2023-02-13T19:37:46.183Z,23.00
2023-02-13T19:40:15.324Z,25.00
2023-02-13T19:42:43.729Z,24.00
2023-02-13T19:45:12.556Z,23.00
2023-02-13T19:47:40.869Z,23.50
2023-02-13T19:50:09.846Z,25.75
2023-02-13T19:52:38.372Z,25.75
2023-02-13T19:55:06.873Z,25.00
2023-02-13T19:57:35.165Z,23.50
2023-02-13T20:00:05.559Z,25.25
2023-02-13T20:02:34.159Z,24.00
2023-02-13T20:05:02.496Z,23.50
2023-02-13T20:07:31.341Z,24.75
2023-02-13T20:09:59.824Z,24.50
2023-02-13T20:12:28.167Z,25.00
2023-02-13T20:14:56.872Z,25.00
2023-02-13T20:17:25.453Z,23.75
2023-02-13T20:19:53.809Z,23.75
2023-02-13T20:22:22.203Z,23.75
2023-02-13T20:24:50.500Z,24.50
2023-02-13T20:27:18.785Z,24.25
2023-02-13T20:29:47.140Z,22.75
2023-02-13T20:32:15.631Z,24.25
2023-02-13T20:34:59.020Z,23.00
2023-02-13T20:37:28.379Z,23.00
2023-02-13T20:39:56.688Z,23.25
2023-02-13T20:42:25.221Z,23.25
2023-02-13T20:44:53.487Z,22.50
2023-02-13T20:47:21.783Z,22.50
2023-02-13T20:49:50.136Z,23.00
2023-02-13T20:52:18.494Z,24.50
2023-02-13T20:54:48.022Z,22.50
2023-02-13T20:57:16.682Z,23.00
2023-02-13T20:59:45.967Z,23.50
2023-02-13T21:02:14.552Z,23.50
2023-02-13T21:04:42.937Z,22.75
2023-02-13T21:07:11.341Z,22.25
2023-02-13T21:09:39.748Z,23.00
2023-02-13T21:12:08.181Z,23.00
2023-02-13T21:14:36.544Z,22.00
2023-02-13T21:17:04.835Z,22.25
2023-02-13T21:19:33.246Z,22.50
2023-02-13T21:22:21.657Z,22.00
2023-02-13T21:24:52.239Z,22.75
2023-02-13T21:27:20.610Z,22.25
2023-02-13T21:29:49.061Z,24.00
2023-02-13T21:32:17.535Z,21.75
2023-02-13T21:34:45.883Z,23.00
2023-02-13T21:37:14.238Z,21.00
2023-02-13T21:39:42.542Z,21.00
2023-02-13T21:42:11.389Z,21.50
2023-02-13T21:44:39.733Z,21.25
2023-02-13T21:47:08.049Z,22.00
2023-02-13T21:49:36.819Z,22.00
2023-02-13T21:52:05.338Z,21.50
2023-02-13T21:54:33.726Z,21.25
2023-02-13T21:57:02.138Z,21.75
2023-02-13T21:59:30.445Z,21.25
2023-02-13T22:01:59.206Z,22.50
2023-02-13T22:04:27.655Z,21.00
2023-02-13T22:06:55.978Z,21.75
2023-02-13T22:09:24.424Z,21.00
2023-02-13T22:11:55.771Z,22.50
2023-02-13T22:14:24.221Z,22.00
2023-02-13T22:16:53.538Z,20.75
2023-02-13T22:19:22.331Z,21.00
2023-02-13T22:21:50.649Z,22.50
2023-02-13T22:24:19.067Z,23.00
2023-02-13T22:26:47.478Z,21.75
2023-02-13T22:29:18.651Z,22.25
2023-02-13T22:31:47.865Z,21.50
2023-02-13T22:34:16.533Z,21.75
2023-02-13T22:36:45.090Z,22.25
2023-02-13T22:39:13.871Z,23.50
2023-02-13T22:41:43.266Z,21.25
2023-02-13T22:44:11.628Z,21.50
2023-02-13T22:46:40.124Z,23.00
2023-02-13T22:49:08.532Z,23.50
2023-02-13T22:51:38.060Z,22.50
2023-02-13T22:54:07.184Z,24.25
2023-02-13T22:56:36.018Z,23.25
2023-02-13T22:59:04.580Z,24.25
2023-02-13T23:01:32.982Z,24.25
2023-02-13T23:04:01.428Z,23.00
2023-02-13T23:06:29.996Z,24.00
2023-02-13T23:08:58.513Z,22.75
2023-02-13T23:11:47.853Z,22.25
2023-02-13T23:14:17.512Z,23.00
2023-02-13T23:17:04.072Z,22.00
2023-02-13T23:19:32.959Z,22.00
2023-02-13T23:22:01.835Z,22.00
2023-02-13T23:24:31.499Z,22.00
2023-02-13T23:27:01.031Z,22.50
2023-02-13T23:29:29.431Z,19.50
2023-02-13T23:31:57.965Z,22.00
2023-02-13T23:34:26.814Z,22.00
2023-02-13T23:36:55.178Z,21.25
2023-02-13T23:39:25.114Z,20.25
2023-02-13T23:41:53.420Z,22.00
2023-02-13T23:44:21.767Z,22.00
2023-02-13T23:46:50.049Z,21.00
2023-02-13T23:49:18.462Z,20.75
2023-02-13T23:51:46.805Z,21.75
2023-02-13T23:54:24.962Z,22.00
2023-02-13T23:56:55.528Z,21.25
2023-02-13T23:59:26.384Z,22.25
